Time;durP1;ratioP1;P1;durP2;ratioP2;P2;SDS_P1;SDS_P2;PMS_P1;PMS_P2;Temp;Humidity;BMP_temperature;BMP_pressure;BME280_temperature;BME280_humidity;BME280_pressure;Samples;Min_cycle;Max_cycle;Signal;HPM_P1;HPM_P2
2022/02/07 00:00:45;;;;;;;1.60;0.60;;;5.20;99.90;;;;;;6217002;23;20016;-83
2022/02/07 00:03:29;;;;;;;0.60;0.60;;;5.20;99.90;;;;;;6216670;23;20422;-84
2022/02/07 00:05:55;;;;;;;1.20;0.60;;;5.20;99.90;;;;;;6216571;23;20414;-85
2022/02/07 00:08:20;;;;;;;0.65;0.60;;;5.20;99.90;;;;;;6214963;23;20015;-85
2022/02/07 00:10:46;;;;;;;0.60;0.57;;;5.20;99.90;;;;;;6214995;23;20080;-85
2022/02/07 00:13:12;;;;;;;0.60;0.60;;;5.20;99.90;;;;;;6214965;23;20422;-85
2022/02/07 00:15:38;;;;;;;0.80;0.70;;;5.20;99.90;;;;;;6214930;23;20055;-85
2022/02/07 00:18:05;;;;;;;0.52;0.52;;;5.10;99.90;;;;;;6216523;23;20024;-86
2022/02/07 00:20:32;;;;;;;0.75;0.60;;;5.20;99.90;;;;;;6216459;23;20011;-87
2022/02/07 00:22:57;;;;;;;1.55;0.70;;;5.10;99.90;;;;;;6215995;23;20091;-88
2022/02/07 00:25:23;;;;;;;0.90;0.70;;;5.20;99.90;;;;;;6216547;23;20055;-88
2022/02/07 00:27:49;;;;;;;0.60;0.50;;;5.20;99.90;;;;;;6215054;23;20063;-90
2022/02/07 00:30:17;;;;;;;0.65;0.50;;;5.10;99.90;;;;;;6215438;23;20079;-90
2022/02/07 00:32:43;;;;;;;0.50;0.50;;;5.20;99.90;;;;;;6215180;23;20005;-90
2022/02/07 00:35:13;;;;;;;0.82;0.60;;;5.20;99.90;;;;;;6189841;23;20341;-89
2022/02/07 00:37:42;;;;;;;0.52;0.52;;;5.10;99.90;;;;;;6214919;23;20012;-89
2022/02/07 00:42:52;;;;;;;0.75;0.50;;;5.10;99.90;;;;;;6226533;23;20336;-89
2022/02/07 00:45:40;;;;;;;0.50;0.50;;;5.10;99.90;;;;;;6214611;23;20005;-89
2022/02/07 00:48:07;;;;;;;0.57;0.50;;;5.10;99.90;;;;;;6215223;23;20425;-88
2022/02/07 00:50:35;;;;;;;0.63;0.57;;;5.10;99.90;;;;;;6214745;23;20017;-89
2022/02/07 00:53:03;;;;;;;1.17;0.60;;;5.00;99.90;;;;;;6216555;23;20354;-91
2022/02/07 00:55:29;;;;;;;0.57;0.50;;;5.00;99.90;;;;;;6214988;23;20151;-90
2022/02/07 00:57:55;;;;;;;0.95;0.50;;;5.00;99.90;;;;;;6214885;23;20032;-90
2022/02/07 01:00:21;;;;;;;0.85;0.60;;;5.00;99.90;;;;;;6215133;23;20012;-89
2022/02/07 01:02:47;;;;;;;0.50;0.40;;;5.00;99.90;;;;;;6214706;23;20005;-90
2022/02/07 01:05:13;;;;;;;0.47;0.47;;;5.00;99.90;;;;;;6215011;23;20031;-90
2022/02/07 01:07:42;;;;;;;0.93;0.40;;;5.00;99.90;;;;;;6215062;23;20028;-91
2022/02/07 01:10:08;;;;;;;1.13;0.52;;;5.00;99.90;;;;;;6215911;23;20361;-90
2022/02/07 01:20:50;;;;;;;0.75;0.50;;;5.00;99.90;;;;;;6216791;23;20015;-91
2022/02/07 01:48:55;;;;;;;2.28;0.60;;;5.00;99.90;;;;;;6216450;23;20047;-91
2022/02/07 01:55:41;;;;;;;0.80;0.50;;;5.00;99.90;;;;;;6247090;23;20012;-90
2022/02/07 01:58:09;;;;;;;0.88;0.43;;;5.00;99.90;;;;;;6221989;23;20008;-91
2022/02/07 02:00:37;;;;;;;0.40;0.40;;;4.90;99.90;;;;;;6221706;23;20026;-90
2022/02/07 02:03:03;;;;;;;0.40;0.40;;;4.90;99.90;;;;;;6221672;23;20050;-89
2022/02/07 02:05:39;;;;;;;0.60;0.40;;;4.90;99.90;;;;;;6221446;23;20481;-89
2022/02/07 02:08:12;;;;;;;0.80;0.45;;;5.00;99.90;;;;;;6221281;23;20007;-88
2022/02/07 02:10:42;;;;;;;1.42;0.57;;;4.90;99.90;;;;;;6221499;23;20433;-90
2022/02/07 02:13:19;;;;;;;1.02;0.60;;;4.90;99.90;;;;;;6221432;23;20091;-89
2022/02/07 02:15:52;;;;;;;2.72;0.50;;;5.00;99.90;;;;;;6221528;23;20004;-89
2022/02/07 02:37:26;;;;;;;1.98;0.65;;;4.90;99.90;;;;;;6248197;23;20348;-89
2022/02/07 02:45:29;;;;;;;2.70;0.63;;;4.90;99.90;;;;;;6247950;23;20456;-89
2022/02/07 02:47:58;;;;;;;4.88;0.65;;;4.90;99.90;;;;;;6221370;23;20008;-89
2022/02/07 02:50:32;;;;;;;2.60;0.68;;;4.90;99.90;;;;;;6220862;23;20013;-89
2022/02/07 02:53:11;;;;;;;2.75;0.60;;;4.90;99.90;;;;;;6248382;23;20000;-89
2022/02/07 02:55:39;;;;;;;3.50;0.90;;;4.90;99.90;;;;;;6220862;23;20007;-89
2022/02/07 02:58:07;;;;;;;3.80;0.80;;;4.90;99.90;;;;;;6221083;23;20031;-89
2022/02/07 03:00:33;;;;;;;4.22;0.95;;;4.90;99.90;;;;;;6221150;23;20008;-89
2022/02/07 03:02:59;;;;;;;4.68;0.90;;;4.90;99.90;;;;;;6221050;23;20007;-89
2022/02/07 03:05:26;;;;;;;2.35;0.90;;;4.90;99.90;;;;;;6247664;23;20011;-89
2022/02/07 03:07:51;;;;;;;3.13;0.70;;;4.90;99.90;;;;;;6220633;23;20092;-89
2022/02/07 03:10:31;;;;;;;5.72;0.90;;;4.90;99.90;;;;;;6220733;23;20028;-89
2022/02/07 03:18:13;;;;;;;5.78;1.35;;;4.90;99.90;;;;;;6247957;23;20011;-88
2022/02/07 03:20:39;;;;;;;2.05;0.70;;;4.90;99.90;;;;;;6220662;23;20008;-87
2022/02/07 03:23:04;;;;;;;2.25;0.93;;;4.90;99.90;;;;;;6220637;23;20008;-88
2022/02/07 03:25:30;;;;;;;3.45;0.60;;;4.80;99.90;;;;;;6220549;23;20004;-87
2022/02/07 03:27:56;;;;;;;1.88;0.82;;;4.80;99.90;;;;;;6220414;23;20435;-88
2022/02/07 03:30:22;;;;;;;3.95;0.88;;;4.80;99.90;;;;;;6220585;23;20310;-88
2022/02/07 03:32:47;;;;;;;3.35;1.08;;;4.80;99.90;;;;;;6220428;23;19996;-88
2022/02/07 03:35:15;;;;;;;2.53;0.77;;;4.80;99.90;;;;;;6220606;23;20008;-88
2022/02/07 03:37:41;;;;;;;5.80;0.90;;;4.80;99.90;;;;;;6220551;23;20096;-88
2022/02/07 03:40:07;;;;;;;4.05;0.80;;;4.80;99.90;;;;;;6220474;23;20445;-87
2022/02/07 03:42:33;;;;;;;5.13;1.05;;;4.80;99.90;;;;;;6220481;23;20004;-88
2022/02/07 03:44:58;;;;;;;2.67;0.98;;;4.80;99.90;;;;;;6220443;23;20015;-87
2022/02/07 03:47:24;;;;;;;3.35;1.00;;;4.80;99.90;;;;;;6220254;23;20008;-87
2022/02/07 03:49:50;;;;;;;2.30;0.95;;;4.80;99.90;;;;;;6220048;23;20146;-88
2022/02/07 03:52:16;;;;;;;2.35;0.77;;;4.80;99.90;;;;;;6220392;23;20004;-87
2022/02/07 03:54:41;;;;;;;2.25;0.80;;;4.80;99.90;;;;;;6220313;23;19996;-86
2022/02/07 03:57:07;;;;;;;2.70;0.90;;;4.80;99.90;;;;;;6220220;23;20078;-86
2022/02/07 03:59:33;;;;;;;4.88;0.98;;;4.80;99.90;;;;;;6247043;23;20004;-86
2022/02/07 04:01:58;;;;;;;3.00;0.80;;;4.80;99.90;;;;;;6247318;23;20459;-87
2022/02/07 04:04:24;;;;;;;3.45;1.00;;;4.70;99.90;;;;;;6220278;23;20004;-87
2022/02/07 04:06:51;;;;;;;2.10;0.68;;;4.80;99.90;;;;;;6219957;23;20012;-88
2022/02/07 04:09:21;;;;;;;2.03;0.80;;;4.70;99.90;;;;;;6220186;23;20027;-87
2022/02/07 04:11:53;;;;;;;3.35;1.00;;;4.70;99.90;;;;;;6220117;23;20000;-87
2022/02/07 04:14:22;;;;;;;1.10;0.70;;;4.70;99.90;;;;;;6220165;23;20441;-87
2022/02/07 04:16:48;;;;;;;3.08;1.00;;;4.70;99.90;;;;;;6247203;23;20007;-87
2022/02/07 04:21:42;;;;;;;3.70;0.80;;;4.70;99.90;;;;;;6247213;23;20054;-88
2022/02/07 04:24:09;;;;;;;3.13;0.90;;;4.70;99.90;;;;;;6220145;23;20123;-88
2022/02/07 04:26:34;;;;;;;3.17;0.70;;;4.70;99.90;;;;;;6220100;23;20028;-88
2022/02/07 04:29:00;;;;;;;2.70;0.70;;;4.70;99.90;;;;;;6219996;23;19903;-88
2022/02/07 04:31:26;;;;;;;2.50;0.65;;;4.70;99.90;;;;;;6220378;23;20004;-87
2022/02/07 04:33:51;;;;;;;1.23;0.70;;;4.70;99.90;;;;;;6219974;23;20012;-87
2022/02/07 04:36:17;;;;;;;1.95;1.00;;;4.70;99.90;;;;;;6219956;23;20001;-87
2022/02/07 04:38:43;;;;;;;2.35;0.65;;;4.70;99.90;;;;;;6219873;23;20087;-87
2022/02/07 04:41:09;;;;;;;2.83;0.93;;;4.70;99.90;;;;;;6220545;23;20034;-87
2022/02/07 04:43:38;;;;;;;2.22;0.70;;;4.70;99.90;;;;;;6219882;23;20013;-88
2022/02/07 04:46:26;;;;;;;1.08;0.70;;;4.70;99.90;;;;;;6219796;23;20010;-88
2022/02/07 04:59:19;;;;;;;2.13;0.70;;;4.70;99.90;;;;;;6246665;23;20073;-88
2022/02/07 05:01:51;;;;;;;2.60;0.65;;;4.70;99.90;;;;;;6246584;23;20008;-88
2022/02/07 05:04:32;;;;;;;1.02;0.50;;;4.70;99.90;;;;;;6246905;23;20003;-88
2022/02/07 05:15:10;;;;;;;3.33;0.95;;;4.60;99.90;;;;;;6246997;23;20098;-88
2022/02/07 05:17:38;;;;;;;2.50;0.70;;;4.60;99.90;;;;;;6219674;23;20462;-88
2022/02/07 05:20:06;;;;;;;1.80;0.60;;;4.60;99.90;;;;;;6246740;23;20081;-88
2022/02/07 05:22:33;;;;;;;0.85;0.60;;;4.60;99.90;;;;;;6219517;23;20004;-88
2022/02/07 05:24:59;;;;;;;2.13;0.60;;;4.60;99.90;;;;;;6246385;23;20079;-88
2022/02/07 05:27:25;;;;;;;3.10;0.82;;;4.60;99.90;;;;;;6219208;23;20372;-88
2022/02/07 05:29:51;;;;;;;4.20;0.93;;;4.60;99.90;;;;;;6219475;23;20459;-88
2022/02/07 05:32:17;;;;;;;2.17;1.00;;;4.60;99.90;;;;;;6219326;23;20028;-87
2022/02/07 05:34:43;;;;;;;1.83;0.77;;;4.50;99.90;;;;;;6246594;23;20425;-88
2022/02/07 05:37:14;;;;;;;3.50;0.85;;;4.50;99.90;;;;;;6219519;23;20433;-87
2022/02/07 05:39:41;;;;;;;2.45;0.77;;;4.50;99.90;;;;;;6219557;23;20004;-87
2022/02/07 05:42:07;;;;;;;2.50;1.00;;;4.50;99.90;;;;;;6246269;23;20004;-88
2022/02/07 05:44:34;;;;;;;5.28;1.20;;;4.60;99.90;;;;;;6246275;23;20390;-87
2022/02/07 05:47:01;;;;;;;2.13;0.82;;;4.50;99.90;;;;;;6246118;23;20035;-88
2022/02/07 05:49:27;;;;;;;3.83;0.93;;;4.50;99.90;;;;;;6214106;23;20017;-87
2022/02/07 05:51:54;;;;;;;3.53;0.90;;;4.50;99.90;;;;;;6214337;23;20058;-88
2022/02/07 05:54:21;;;;;;;3.75;1.00;;;4.50;99.90;;;;;;6214283;23;20004;-88
2022/02/07 05:56:46;;;;;;;1.73;0.77;;;4.50;99.90;;;;;;6214695;23;20422;-87
2022/02/07 05:59:12;;;;;;;3.70;1.00;;;4.50;99.90;;;;;;6214252;23;20088;-88
2022/02/07 06:01:38;;;;;;;3.45;1.55;;;4.50;99.90;;;;;;6214289;23;20019;-87
2022/02/07 06:04:03;;;;;;;2.85;0.80;;;4.50;99.90;;;;;;6214253;23;20008;-87
2022/02/07 06:06:29;;;;;;;5.15;1.13;;;4.50;99.90;;;;;;6214176;23;20005;-88
2022/02/07 06:08:55;;;;;;;4.65;1.08;;;4.50;99.90;;;;;;6215181;23;20004;-87
2022/02/07 06:11:20;;;;;;;2.33;1.00;;;4.50;99.90;;;;;;6214211;23;20007;-87
2022/02/07 06:13:46;;;;;;;5.25;0.98;;;4.50;99.90;;;;;;6214281;23;20035;-87
2022/02/07 06:16:17;;;;;;;3.55;1.08;;;4.50;99.90;;;;;;6215716;23;20325;-87
2022/02/07 06:18:43;;;;;;;2.55;0.85;;;4.50;99.90;;;;;;6214575;23;20001;-87
2022/02/07 06:21:12;;;;;;;2.63;0.80;;;4.50;99.90;;;;;;6214155;23;20437;-87
2022/02/07 06:23:39;;;;;;;4.60;0.90;;;4.50;99.90;;;;;;6215744;23;20127;-87
2022/02/07 06:26:05;;;;;;;6.35;1.30;;;4.50;99.90;;;;;;6214160;23;20011;-87
2022/02/07 06:28:30;;;;;;;4.35;1.02;;;4.50;99.90;;;;;;6214016;23;20005;-87
2022/02/07 06:30:56;;;;;;;2.75;0.90;;;4.50;99.90;;;;;;6214116;23;20008;-87
2022/02/07 06:33:22;;;;;;;5.20;1.27;;;4.50;99.90;;;;;;6214062;23;20007;-87
2022/02/07 06:35:48;;;;;;;4.10;1.05;;;4.50;99.90;;;;;;6214097;23;20088;-87
2022/02/07 06:38:14;;;;;;;2.67;1.20;;;4.50;99.90;;;;;;6214054;23;20055;-87
2022/02/07 06:40:39;;;;;;;4.00;0.90;;;4.50;99.90;;;;;;6214026;23;20115;-87
2022/02/07 06:43:05;;;;;;;2.30;0.90;;;4.50;99.90;;;;;;6216675;23;20005;-87
2022/02/07 06:45:31;;;;;;;4.85;0.98;;;4.40;99.90;;;;;;6217408;23;20051;-87
2022/02/07 06:47:57;;;;;;;6.13;1.00;;;4.40;99.90;;;;;;6215781;23;20044;-87
2022/02/07 06:50:23;;;;;;;5.90;1.20;;;4.40;99.90;;;;;;6215658;23;20043;-88
2022/02/07 06:52:48;;;;;;;7.82;1.27;;;4.40;99.90;;;;;;6215891;23;20019;-87
2022/02/07 06:55:14;;;;;;;6.25;1.23;;;4.40;99.90;;;;;;6215832;23;19997;-88
2022/02/07 06:57:40;;;;;;;3.80;1.10;;;4.40;99.90;;;;;;6215787;23;20008;-87
2022/02/07 07:00:09;;;;;;;5.95;1.00;;;4.40;99.90;;;;;;6215722;23;20008;-87
2022/02/07 07:02:36;;;;;;;7.30;1.20;;;4.40;99.90;;;;;;6217594;23;20005;-88
2022/02/07 07:05:09;;;;;;;4.00;1.00;;;4.40;99.90;;;;;;6215707;23;20336;-87
2022/02/07 07:07:35;;;;;;;3.08;1.10;;;4.50;99.90;;;;;;6217581;23;20027;-87
2022/02/07 07:10:00;;;;;;;3.35;1.30;;;4.50;99.90;;;;;;6215728;23;20001;-87
2022/02/07 07:12:29;;;;;;;5.32;1.30;;;4.50;99.90;;;;;;6215618;23;20005;-87
2022/02/07 07:15:08;;;;;;;5.25;1.40;;;4.50;99.90;;;;;;6215583;23;20028;-87
2022/02/07 07:17:34;;;;;;;4.75;1.20;;;4.50;99.90;;;;;;6215715;23;20005;-87
2022/02/07 07:20:05;;;;;;;3.45;1.00;;;4.50;99.90;;;;;;6215541;23;20001;-87
2022/02/07 07:22:34;;;;;;;6.60;1.20;;;4.60;99.90;;;;;;6215605;23;20037;-87
2022/02/07 07:25:01;;;;;;;8.48;1.08;;;4.60;99.90;;;;;;6215528;23;20055;-87
2022/02/07 07:27:31;;;;;;;6.07;1.45;;;4.60;99.90;;;;;;6216998;23;20011;-87
2022/02/07 07:29:57;;;;;;;3.88;1.20;;;4.50;99.90;;;;;;6216564;23;20309;-87
2022/02/07 07:32:27;;;;;;;6.50;1.13;;;4.50;99.90;;;;;;6215548;23;20009;-88
2022/02/07 07:34:52;;;;;;;6.13;1.45;;;4.50;99.90;;;;;;6217020;23;20083;-87
2022/02/07 07:37:18;;;;;;;4.55;1.13;;;4.50;99.90;;;;;;6217052;23;20040;-86
2022/02/07 07:39:44;;;;;;;6.32;1.15;;;4.50;99.90;;;;;;6215400;23;20001;-87
2022/02/07 07:42:10;;;;;;;4.65;1.10;;;4.60;99.90;;;;;;6216862;23;20000;-87
2022/02/07 07:44:37;;;;;;;3.38;1.35;;;4.90;99.90;;;;;;6215339;23;20319;-87
2022/02/07 07:47:13;;;;;;;7.50;1.77;;;5.00;99.90;;;;;;6215179;23;20055;-87
2022/02/07 07:49:57;;;;;;;6.20;1.42;;;5.20;99.90;;;;;;6230328;23;20031;-88
2022/02/07 07:52:41;;;;;;;5.07;1.38;;;6.00;99.90;;;;;;6220343;23;20030;-87
2022/02/07 07:55:29;;;;;;;5.18;1.23;;;6.80;99.90;;;;;;6246616;23;19996;-86
2022/02/07 08:03:27;;;;;;;7.50;1.70;;;8.60;99.90;;;;;;6247177;23;20332;-87
2022/02/07 08:06:09;;;;;;;3.65;1.30;;;9.20;99.90;;;;;;6247455;23;20329;-86
2022/02/07 08:08:44;;;;;;;3.95;1.40;;;9.50;99.90;;;;;;6220075;23;20435;-87
2022/02/07 08:11:12;;;;;;;4.53;1.42;;;9.90;99.90;;;;;;6220163;23;20027;-87
2022/02/07 08:13:41;;;;;;;3.45;1.10;;;10.20;99.90;;;;;;6220142;23;20087;-88
2022/02/07 08:16:07;;;;;;;4.60;1.05;;;10.40;99.90;;;;;;6220039;23;20000;-87
2022/02/07 08:18:32;;;;;;;5.05;1.20;;;10.60;99.90;;;;;;6219869;23;20024;-88
2022/02/07 08:20:58;;;;;;;3.47;0.93;;;10.70;99.90;;;;;;6219916;23;20004;-87
2022/02/07 08:23:24;;;;;;;4.32;1.10;;;10.40;99.90;;;;;;6219907;23;20433;-87
2022/02/07 08:25:52;;;;;;;4.45;1.20;;;10.20;99.90;;;;;;6246725;23;20000;-87
2022/02/07 08:28:17;;;;;;;5.40;1.35;;;10.20;99.90;;;;;;6219783;23;20019;-87
2022/02/07 08:30:43;;;;;;;3.88;1.40;;;10.70;99.90;;;;;;6219805;23;20004;-87
2022/02/07 08:33:09;;;;;;;3.88;1.08;;;10.30;99.90;;;;;;6219942;23;20010;-87
2022/02/07 08:35:34;;;;;;;5.97;1.40;;;10.50;99.90;;;;;;6246664;23;20000;-87
2022/02/07 08:38:00;;;;;;;3.88;1.30;;;11.00;99.90;;;;;;6219805;23;20012;-87
2022/02/07 08:40:27;;;;;;;3.55;1.23;;;11.40;99.90;;;;;;6219942;23;20004;-87
2022/02/07 08:42:54;;;;;;;3.10;0.75;;;11.60;99.90;;;;;;6220229;23;20034;-88
2022/02/07 08:45:22;;;;;;;3.38;1.10;;;11.90;99.90;;;;;;6219712;23;20375;-88
2022/02/07 08:47:48;;;;;;;4.85;1.23;;;12.20;99.90;;;;;;6219707;23;20520;-89
2022/02/07 08:50:14;;;;;;;6.38;1.35;;;12.40;99.90;;;;;;6219540;23;20048;-89
2022/02/07 08:52:43;;;;;;;4.65;1.05;;;12.70;99.90;;;;;;6219779;23;20008;-88
2022/02/07 08:55:14;;;;;;;5.35;1.17;;;12.70;99.90;;;;;;6219720;23;20008;-88
2022/02/07 08:57:44;;;;;;;3.63;0.90;;;12.50;99.90;;;;;;6219731;23;20004;-89
2022/02/07 09:05:39;;;;;;;5.00;1.23;;;11.40;99.90;;;;;;6255785;23;20093;-89
2022/02/07 09:08:19;;;;;;;6.50;1.38;;;11.00;99.90;;;;;;6219854;23;20004;-89
2022/02/07 09:10:47;;;;;;;5.65;1.30;;;10.70;99.90;;;;;;6219694;23;20048;-89
2022/02/07 09:13:14;;;;;;;3.60;1.25;;;10.30;99.90;;;;;;6219680;23;20429;-88
2022/02/07 09:15:53;;;;;;;3.47;1.15;;;10.30;99.90;;;;;;6246478;23;20040;-89
2022/02/07 09:18:19;;;;;;;4.10;1.10;;;10.10;99.90;;;;;;6246857;23;19997;-89
2022/02/07 09:20:45;;;;;;;3.67;0.85;;;9.90;99.90;;;;;;6219522;23;20000;-89
2022/02/07 09:23:11;;;;;;;5.78;1.40;;;9.70;99.90;;;;;;6246287;23;20004;-89
2022/02/07 09:25:37;;;;;;;2.97;0.88;;;9.60;99.90;;;;;;6246315;23;20000;-89
2022/02/07 09:28:03;;;;;;;4.80;1.45;;;9.50;99.90;;;;;;6246725;23;20000;-89
2022/02/07 09:30:30;;;;;;;7.20;1.90;;;9.50;99.90;;;;;;6246287;23;20004;-90
2022/02/07 09:32:55;;;;;;;5.53;1.33;;;9.30;99.90;;;;;;6219453;23;20095;-87
2022/02/07 09:35:21;;;;;;;8.65;1.40;;;9.20;99.90;;;;;;6219502;23;20027;-89
2022/02/07 09:37:47;;;;;;;5.40;1.13;;;9.00;99.90;;;;;;6246287;23;20027;-89
2022/02/07 09:40:14;;;;;;;5.03;1.17;;;9.00;99.90;;;;;;6219906;23;20000;-90
2022/02/07 09:42:46;;;;;;;8.95;1.67;;;9.00;99.90;;;;;;6219643;23;20035;-89
2022/02/07 09:45:18;;;;;;;2.72;0.77;;;8.90;99.90;;;;;;6219684;23;20004;-89
2022/02/07 09:47:44;;;;;;;5.88;1.40;;;9.00;99.90;;;;;;6219515;23;20081;-89
2022/02/07 09:50:10;;;;;;;11.50;1.63;;;9.00;99.90;;;;;;6219451;23;20433;-88
2022/02/07 09:52:36;;;;;;;6.55;1.55;;;9.00;99.90;;;;;;6219633;23;20073;-91
2022/02/07 09:55:04;;;;;;;6.57;1.73;;;9.00;99.90;;;;;;6219669;23;20079;-89
2022/02/07 09:57:30;;;;;;;6.25;1.40;;;8.90;99.90;;;;;;6219607;23;20087;-89
2022/02/07 10:00:03;;;;;;;4.68;1.58;;;8.90;99.90;;;;;;6219737;23;20004;-91
2022/02/07 10:02:38;;;;;;;5.40;1.50;;;8.90;99.90;;;;;;6219820;23;20000;-90
2022/02/07 10:05:10;;;;;;;8.85;1.63;;;8.90;99.90;;;;;;6246449;23;20011;-90
2022/02/07 10:07:49;;;;;;;7.90;1.70;;;8.90;99.90;;;;;;6219811;23;20005;-91
2022/02/07 10:40:09;;;;;;;5.90;1.33;;;8.70;99.90;;;;;;6248445;23;20455;-90
2022/02/07 10:43:07;;;;;;;11.02;1.50;;;8.60;99.90;;;;;;6248461;23;20007;-90
2022/02/07 10:45:47;;;;;;;7.75;1.92;;;8.40;99.90;;;;;;6221490;23;20504;-91
2022/02/07 10:48:26;;;;;;;5.13;1.40;;;8.20;99.90;;;;;;6221309;23;20011;-90
2022/02/07 10:51:07;;;;;;;6.45;1.48;;;8.10;99.90;;;;;;6221403;23;20011;-91
2022/02/07 10:53:52;;;;;;;8.60;1.50;;;8.00;99.90;;;;;;6221433;23;20004;-91
2022/02/07 10:56:36;;;;;;;6.65;1.90;;;8.10;99.90;;;;;;6221505;23;20000;-91
2022/02/07 10:59:08;;;;;;;8.05;1.35;;;8.00;99.90;;;;;;6221363;23;20065;-92
2022/02/07 11:02:02;;;;;;;6.25;1.45;;;7.80;99.90;;;;;;6221685;23;20004;-91
2022/02/07 11:04:40;;;;;;;4.45;1.30;;;7.60;99.90;;;;;;6247905;23;20011;-91
2022/02/07 11:07:10;;;;;;;5.03;1.52;;;7.60;99.90;;;;;;6221504;23;20008;-91
2022/02/07 11:12:39;;;;;;;9.30;1.80;;;7.30;99.90;;;;;;6248428;23;20405;-91
2022/02/07 11:18:14;;;;;;;9.73;1.67;;;7.00;99.90;;;;;;6212919;23;20000;-90
2022/02/07 11:28:22;;;;;;;10.15;1.80;;;6.60;99.90;;;;;;6258333;23;20004;-90
2022/02/07 11:31:05;;;;;;;6.20;1.48;;;6.50;99.90;;;;;;6247743;23;20003;-90
2022/02/07 11:33:36;;;;;;;7.18;1.70;;;6.50;99.90;;;;;;6220705;23;20008;-89
2022/02/07 11:36:08;;;;;;;8.18;1.30;;;6.40;99.90;;;;;;6220747;23;20008;-89
2022/02/07 11:38:33;;;;;;;5.90;1.20;;;6.40;99.90;;;;;;6220829;23;20008;-89
2022/02/07 11:41:05;;;;;;;7.40;1.60;;;6.40;99.90;;;;;;6220778;23;20379;-89
2022/02/07 11:43:37;;;;;;;6.78;1.58;;;6.40;99.90;;;;;;6247869;23;20004;-90
2022/02/07 11:46:08;;;;;;;6.65;1.48;;;6.40;99.90;;;;;;6220882;23;20012;-89
2022/02/07 11:48:41;;;;;;;6.78;1.42;;;6.40;99.90;;;;;;6247425;23;20081;-90
2022/02/07 11:51:27;;;;;;;5.30;1.45;;;6.40;99.90;;;;;;6247621;23;20012;-89
2022/02/07 11:53:58;;;;;;;6.93;1.52;;;6.40;99.90;;;;;;6247632;23;20024;-90
2022/02/07 11:56:33;;;;;;;4.95;1.70;;;6.30;99.90;;;;;;6220780;23;20440;-90
2022/02/07 11:59:06;;;;;;;8.70;1.73;;;6.30;99.90;;;;;;6220605;23;20008;-90
2022/02/07 12:01:59;;;;;;;4.68;1.58;;;6.20;99.90;;;;;;6220610;23;20011;-90
2022/02/07 12:04:24;;;;;;;9.60;1.75;;;6.20;99.90;;;;;;6220704;23;20433;-90
2022/02/07 12:07:14;;;;;;;8.15;1.42;;;6.20;99.90;;;;;;6247454;23;20058;-91
2022/02/07 12:10:03;;;;;;;6.07;1.50;;;6.10;99.90;;;;;;6220456;23;20004;-90
2022/02/07 12:12:45;;;;;;;6.57;1.65;;;6.10;99.90;;;;;;6247872;23;19992;-90
2022/02/07 12:15:33;;;;;;;5.47;1.40;;;6.10;99.90;;;;;;6220717;23;20010;-90
2022/02/07 12:18:19;;;;;;;7.93;1.55;;;6.10;99.90;;;;;;6220914;23;20448;-91
2022/02/07 12:20:48;;;;;;;6.43;1.48;;;6.00;99.90;;;;;;6221064;23;20008;-90
2022/02/07 12:23:26;;;;;;;9.63;1.60;;;6.00;99.90;;;;;;6220720;23;20091;-90
2022/02/07 12:26:00;;;;;;;6.32;1.40;;;5.90;99.90;;;;;;6220512;23;20004;-91
2022/02/07 12:28:43;;;;;;;9.43;1.58;;;6.00;99.90;;;;;;6221175;23;20440;-90
2022/02/07 12:33:44;;;;;;;9.32;1.40;;;6.00;99.90;;;;;;6258094;23;20007;-93
2022/02/07 12:36:10;;;;;;;6.18;1.48;;;6.00;99.90;;;;;;6220761;23;20091;-91
2022/02/07 12:38:39;;;;;;;4.95;1.25;;;6.00;99.90;;;;;;6220916;23;20036;-90
2022/02/07 12:41:08;;;;;;;5.90;1.60;;;6.10;99.90;;;;;;6220305;23;20008;-90
2022/02/07 12:43:37;;;;;;;6.18;1.77;;;6.10;99.90;;;;;;6220644;23;20047;-90
2022/02/07 12:46:07;;;;;;;6.80;1.52;;;6.10;99.90;;;;;;6247293;23;20083;-91
2022/02/07 12:48:38;;;;;;;10.25;1.90;;;6.10;99.90;;;;;;6220332;23;20011;-90
2022/02/07 12:51:04;;;;;;;10.00;1.63;;;6.10;99.90;;;;;;6220491;23;20008;-90
2022/02/07 12:53:33;;;;;;;6.97;1.50;;;6.10;99.90;;;;;;6220390;23;20015;-91
2022/02/07 12:56:04;;;;;;;5.43;1.67;;;6.20;99.90;;;;;;6220390;23;20015;-91
2022/02/07 12:58:43;;;;;;;10.32;1.63;;;6.20;99.90;;;;;;6220514;23;20013;-91
2022/02/07 13:01:22;;;;;;;8.15;1.90;;;6.20;99.90;;;;;;6221984;23;20064;-91
2022/02/07 13:04:01;;;;;;;5.68;1.70;;;6.20;99.90;;;;;;6220394;23;20004;-93
2022/02/07 13:06:36;;;;;;;7.40;1.40;;;6.30;99.90;;;;;;6247481;23;20065;-92
2022/02/07 13:09:18;;;;;;;7.13;1.60;;;6.30;99.90;;;;;;6221134;23;20035;-96
2022/02/07 13:11:47;;;;;;;5.88;1.40;;;6.40;99.90;;;;;;6223291;23;20456;-93
2022/02/07 13:14:15;;;;;;;5.60;1.40;;;6.50;99.90;;;;;;6221016;23;20004;-93
2022/02/07 13:16:41;;;;;;;5.80;1.70;;;6.60;99.90;;;;;;6223020;23;20050;-94
2022/02/07 13:19:30;;;;;;;10.55;2.22;;;6.70;99.90;;;;;;6248042;23;20034;-94
2022/02/07 13:21:56;;;;;;;5.85;1.65;;;6.80;99.90;;;;;;6220698;23;20065;-91
2022/02/07 13:24:30;;;;;;;4.30;1.20;;;6.90;99.90;;;;;;6220714;23;20082;-95
2022/02/07 13:26:58;;;;;;;5.30;1.50;;;7.00;99.90;;;;;;6223317;23;20489;-94
2022/02/07 13:29:26;;;;;;;4.72;1.23;;;7.10;99.90;;;;;;6248316;23;19997;-94
2022/02/07 13:31:56;;;;;;;8.82;1.60;;;7.20;99.90;;;;;;6221039;23;20087;-93
2022/02/07 13:34:24;;;;;;;7.05;1.67;;;7.30;99.90;;;;;;6222619;23;20417;-95
2022/02/07 13:36:52;;;;;;;6.15;1.73;;;7.30;99.90;;;;;;6221634;23;20031;-94
2022/02/07 13:39:20;;;;;;;6.28;1.52;;;7.40;99.90;;;;;;6221188;23;20008;-95
2022/02/07 13:42:06;;;;;;;4.57;1.35;;;7.50;99.90;;;;;;6221432;23;20004;-92
2022/02/07 13:44:42;;;;;;;4.45;1.25;;;7.60;99.90;;;;;;6223360;23;20000;-95
2022/02/07 13:47:09;;;;;;;4.68;1.23;;;7.60;99.90;;;;;;6223790;23;20011;-91
2022/02/07 13:49:56;;;;;;;3.97;1.35;;;7.70;99.90;;;;;;6220520;23;20016;-95
2022/02/07 13:52:22;;;;;;;3.75;1.20;;;7.70;99.90;;;;;;6220889;23;20417;-94
2022/02/07 13:54:48;;;;;;;6.68;1.38;;;7.70;99.90;;;;;;6222741;23;20091;-94
2022/02/07 13:57:13;;;;;;;4.85;1.48;;;7.70;99.90;;;;;;6223381;23;20068;-94
2022/02/07 13:59:39;;;;;;;3.60;1.13;;;7.70;99.90;;;;;;6225361;23;20059;-94
2022/02/07 14:02:27;;;;;;;8.77;1.50;;;7.70;99.90;;;;;;6224113;23;20034;-95
2022/02/07 14:04:54;;;;;;;6.97;1.67;;;7.70;99.90;;;;;;6249997;23;20413;-95
2022/02/07 14:07:20;;;;;;;4.05;1.48;;;7.70;99.90;;;;;;6249011;23;20337;-93
2022/02/07 14:09:46;;;;;;;7.18;1.38;;;7.70;99.90;;;;;;6222552;23;20000;-95
2022/02/07 14:12:13;;;;;;;5.63;1.38;;;7.70;99.90;;;;;;6222505;23;20075;-93
2022/02/07 14:14:39;;;;;;;7.40;1.42;;;7.70;99.90;;;;;;6222681;23;20047;-93
2022/02/07 14:17:06;;;;;;;6.80;1.45;;;7.70;99.90;;;;;;6222477;23;20336;-93
2022/02/07 14:19:49;;;;;;;8.10;1.58;;;7.70;99.90;;;;;;6223577;23;20035;-93
2022/02/07 14:22:16;;;;;;;5.72;1.65;;;7.60;99.90;;;;;;6228385;23;20012;-95
2022/02/07 14:24:41;;;;;;;8.45;1.83;;;7.50;99.90;;;;;;6228972;23;20091;-93
2022/02/07 14:27:08;;;;;;;6.28;1.80;;;7.50;99.90;;;;;;6222313;23;20398;-93
2022/02/07 14:29:33;;;;;;;5.25;1.67;;;7.50;99.90;;;;;;6249239;23;20035;-93
2022/02/07 14:32:00;;;;;;;5.75;1.30;;;7.40;99.90;;;;;;6223190;23;20087;-95
2022/02/07 14:34:26;;;;;;;7.28;1.50;;;7.40;99.90;;;;;;6249806;23;20007;-94
2022/02/07 14:36:52;;;;;;;7.95;1.55;;;7.40;99.90;;;;;;6223549;23;20425;-94
2022/02/07 14:39:18;;;;;;;6.07;1.40;;;7.30;99.90;;;;;;6222772;23;20087;-93
2022/02/07 14:41:47;;;;;;;7.88;2.00;;;7.30;99.90;;;;;;6248775;23;20310;-94
2022/02/07 14:44:22;;;;;;;7.75;1.95;;;7.20;99.90;;;;;;6222935;23;20004;-95
2022/02/07 14:47:01;;;;;;;7.53;1.52;;;7.10;99.90;;;;;;6223338;23;20015;-96
2022/02/07 14:49:27;;;;;;;6.22;1.85;;;6.90;99.90;;;;;;6223035;23;20463;-95
2022/02/07 14:51:54;;;;;;;6.45;1.77;;;6.80;99.90;;;;;;6228609;23;19996;-96
2022/02/07 14:54:19;;;;;;;6.78;1.70;;;6.80;99.90;;;;;;6226844;23;20449;-96
2022/02/07 14:56:45;;;;;;;5.78;1.85;;;6.70;99.90;;;;;;6223218;23;20000;-95
2022/02/07 14:59:15;;;;;;;5.40;1.77;;;6.70;99.90;;;;;;6222574;23;20008;-95
2022/02/07 15:01:41;;;;;;;7.28;1.70;;;6.60;99.90;;;;;;6249116;23;20000;-93
2022/02/07 15:04:07;;;;;;;6.13;1.70;;;6.50;99.90;;;;;;6221741;23;20015;-95
2022/02/07 15:06:32;;;;;;;5.20;1.65;;;6.50;99.90;;;;;;6248422;23;20004;-93
2022/02/07 15:08:58;;;;;;;7.35;1.95;;;6.40;99.90;;;;;;6222004;23;20008;-94
2022/02/07 15:11:27;;;;;;;7.30;2.17;;;6.30;99.90;;;;;;6227853;23;20027;-96
2022/02/07 15:13:52;;;;;;;5.65;2.08;;;6.30;99.90;;;;;;6228063;23;20024;-96
2022/02/07 15:16:18;;;;;;;6.18;1.90;;;6.20;99.90;;;;;;6230865;23;20000;-96
2022/02/07 15:18:45;;;;;;;9.63;1.85;;;6.20;99.90;;;;;;6230312;23;20015;-94
2022/02/07 15:21:11;;;;;;;4.93;1.38;;;6.20;99.90;;;;;;6232132;23;19985;-95
2022/02/07 15:23:38;;;;;;;6.10;1.85;;;6.10;99.90;;;;;;6234510;23;20306;-96
2022/02/07 15:26:04;;;;;;;6.10;1.70;;;6.10;99.90;;;;;;6239381;23;20004;-96
2022/02/07 15:28:29;;;;;;;6.30;1.90;;;6.00;99.90;;;;;;6228278;23;20107;-95
2022/02/07 15:30:55;;;;;;;5.93;1.80;;;6.00;99.90;;;;;;6231696;23;20004;-95
2022/02/07 15:33:32;;;;;;;10.75;1.85;;;5.90;99.90;;;;;;6235721;23;19995;-96
2022/02/07 15:35:58;;;;;;;14.05;2.05;;;6.00;99.90;;;;;;6236243;23;20004;-95